createdAt,value
2017-07-22T00:00:29.424Z,63.0
2017-07-22T00:03:01.130Z,62.8
2017-07-22T00:05:32.895Z,63.1
2017-07-22T00:08:04.611Z,62.6
2017-07-22T00:10:36.364Z,62.6
2017-07-22T00:13:08.107Z,63.3
2017-07-22T00:15:39.947Z,62.9
2017-07-22T00:18:11.811Z,62.9
2017-07-22T00:20:43.558Z,62.2
2017-07-22T00:23:15.292Z,63.2
2017-07-22T00:25:47.072Z,63.1
2017-07-22T00:28:18.956Z,62.9
2017-07-22T00:30:50.716Z,62.9
2017-07-22T00:33:22.994Z,62.8
2017-07-22T00:35:54.730Z,62.4
2017-07-22T00:38:26.450Z,62.7
2017-07-22T00:40:58.213Z,62.6
2017-07-22T00:43:29.921Z,62.6
2017-07-22T00:46:01.671Z,62.9
2017-07-22T00:48:33.411Z,63.1
2017-07-22T00:51:05.163Z,62.9
2017-07-22T00:53:36.886Z,63.0
2017-07-22T00:56:08.648Z,63.3
2017-07-22T00:58:40.383Z,63.2
2017-07-22T01:01:12.147Z,63.2
2017-07-22T01:03:43.874Z,62.5
2017-07-22T01:06:15.630Z,63.0
2017-07-22T01:08:47.362Z,62.9
2017-07-22T01:11:19.160Z,63.2
2017-07-22T01:13:50.897Z,63.1
2017-07-22T01:16:22.652Z,62.9
2017-07-22T01:18:54.393Z,63.4
2017-07-22T01:21:26.161Z,63.2
2017-07-22T01:23:57.923Z,63.5
2017-07-22T01:26:29.681Z,63.3
2017-07-22T01:29:01.394Z,63.4
2017-07-22T01:31:33.135Z,63.5
2017-07-22T01:34:04.877Z,63.6
2017-07-22T01:36:36.629Z,63.4
2017-07-22T01:39:08.358Z,63.5
2017-07-22T01:41:40.105Z,63.6
2017-07-22T01:44:11.849Z,62.5
2017-07-22T01:46:43.604Z,62.9
2017-07-22T01:49:15.326Z,63.4
2017-07-22T01:51:47.053Z,63.3
2017-07-22T01:54:18.780Z,63.2
2017-07-22T01:56:50.564Z,63.0
2017-07-22T01:59:22.256Z,62.9
2017-07-22T02:01:54.017Z,63.0
2017-07-22T02:04:25.733Z,63.0
2017-07-22T02:06:57.499Z,63.0
2017-07-22T02:09:29.212Z,62.8
2017-07-22T02:12:00.975Z,63.3
2017-07-22T02:14:32.684Z,63.5
2017-07-22T02:17:04.465Z,62.7
2017-07-22T02:19:36.217Z,62.6
2017-07-22T02:22:07.981Z,63.5
2017-07-22T02:24:39.730Z,63.4
2017-07-22T02:27:11.514Z,63.5
2017-07-22T02:29:43.234Z,63.6
2017-07-22T02:32:14.998Z,63.2
2017-07-22T02:34:46.713Z,63.1
2017-07-22T02:37:18.457Z,63.5
2017-07-22T02:39:50.172Z,63.3
2017-07-22T02:42:21.932Z,63.3
2017-07-22T02:44:53.670Z,63.5
2017-07-22T02:47:25.431Z,63.1
2017-07-22T02:49:57.138Z,63.3
2017-07-22T02:52:28.904Z,63.4
2017-07-22T02:55:00.629Z,63.4
2017-07-22T02:57:32.380Z,63.3
2017-07-22T03:00:04.118Z,63.3
2017-07-22T03:02:35.876Z,63.4
2017-07-22T03:05:07.582Z,63.7
2017-07-22T03:07:39.333Z,63.4
2017-07-22T03:10:11.060Z,63.5
2017-07-22T03:12:42.810Z,63.5
2017-07-22T03:15:14.535Z,63.3
2017-07-22T03:17:46.304Z,63.7
2017-07-22T03:20:18.032Z,63.1
2017-07-22T03:22:49.776Z,64.0
2017-07-22T03:25:21.501Z,63.8
2017-07-22T03:27:53.261Z,63.7
2017-07-22T03:30:24.974Z,64.0
2017-07-22T03:32:56.745Z,63.5
2017-07-22T03:35:28.499Z,63.6
2017-07-22T03:38:00.250Z,63.7
2017-07-22T03:40:31.989Z,63.3
2017-07-22T03:43:03.757Z,63.7
2017-07-22T03:45:35.470Z,64.1
2017-07-22T03:48:07.235Z,63.7
2017-07-22T03:50:38.965Z,63.7
2017-07-22T03:53:10.788Z,63.7
2017-07-22T03:55:42.531Z,63.7
2017-07-22T03:58:14.302Z,63.9
2017-07-22T04:00:45.996Z,64.3
2017-07-22T04:03:17.790Z,63.8
2017-07-22T04:05:49.568Z,63.8
2017-07-22T04:08:21.332Z,64.1
2017-07-22T04:10:53.029Z,63.9
2017-07-22T04:13:24.794Z,63.9
2017-07-22T04:15:56.533Z,64.5
2017-07-22T04:18:28.278Z,63.4
2017-07-22T04:21:00.001Z,63.8
2017-07-22T04:23:31.783Z,63.6
2017-07-22T04:26:03.485Z,64.6
2017-07-22T04:28:35.221Z,63.7
2017-07-22T04:31:06.941Z,63.8
2017-07-22T04:33:38.757Z,64.5
2017-07-22T04:36:10.484Z,64.3
2017-07-22T04:38:42.219Z,64.4
2017-07-22T04:41:13.954Z,64.4
2017-07-22T04:43:45.708Z,63.9
2017-07-22T04:46:17.452Z,64.1
2017-07-22T04:48:49.218Z,64.3
2017-07-22T04:51:20.977Z,64.9
2017-07-22T04:53:53.489Z,64.4
2017-07-22T04:56:24.469Z,64.9
2017-07-22T04:58:56.224Z,64.6
2017-07-22T05:01:27.944Z,64.7
2017-07-22T05:03:59.698Z,63.6
2017-07-22T05:06:31.478Z,63.8
2017-07-22T05:09:03.264Z,66.2
2017-07-22T05:11:34.977Z,65.9
2017-07-22T05:14:06.720Z,65.8
2017-07-22T05:16:38.443Z,65.4
2017-07-22T05:19:10.215Z,65.3
2017-07-22T05:21:41.947Z,64.6
2017-07-22T05:24:13.753Z,64.3
2017-07-22T05:26:45.481Z,63.6
2017-07-22T05:29:17.229Z,64.0
2017-07-22T05:31:48.954Z,64.1
2017-07-22T05:34:20.699Z,63.6
2017-07-22T05:36:52.439Z,63.9
2017-07-22T05:39:24.211Z,63.4
2017-07-22T05:41:55.914Z,63.9
2017-07-22T05:44:27.660Z,63.4
2017-07-22T05:46:59.376Z,63.3
2017-07-22T05:49:31.129Z,63.9
2017-07-22T05:52:02.854Z,64.0
2017-07-22T05:54:34.609Z,63.5
2017-07-22T05:57:06.333Z,63.5
2017-07-22T05:59:38.076Z,63.1
2017-07-22T06:02:09.866Z,63.0
2017-07-22T06:04:41.655Z,62.8
2017-07-22T06:07:13.822Z,63.3
2017-07-22T06:09:45.586Z,62.3
2017-07-22T06:12:17.330Z,62.9
2017-07-22T06:14:49.070Z,63.3
2017-07-22T06:17:20.801Z,65.6
2017-07-22T06:19:52.564Z,65.8
2017-07-22T06:22:24.297Z,67.2
2017-07-22T06:24:56.079Z,67.2
2017-07-22T06:27:27.813Z,69.7
2017-07-22T06:29:59.761Z,70.2
2017-07-22T06:32:31.484Z,66.9
2017-07-22T06:35:03.254Z,69.1
2017-07-22T06:37:34.982Z,68.2
2017-07-22T06:40:06.751Z,67.4
2017-07-22T06:42:38.466Z,66.4
2017-07-22T06:45:10.213Z,66.2
2017-07-22T06:47:41.946Z,67.2
2017-07-22T06:50:13.740Z,67.6
2017-07-22T06:52:45.460Z,68.1
2017-07-22T06:55:17.281Z,68.9
2017-07-22T06:57:48.976Z,69.9
2017-07-22T07:00:21.372Z,70.1
2017-07-22T07:02:53.088Z,71.2
2017-07-22T07:05:25.853Z,71.2
2017-07-22T07:07:57.632Z,70.7
2017-07-22T07:10:29.386Z,69.7
2017-07-22T07:13:01.180Z,69.8
2017-07-22T07:15:32.941Z,70.3
2017-07-22T07:18:04.769Z,70.3
2017-07-22T07:20:36.657Z,70.9
2017-07-22T07:23:08.451Z,71.2
2017-07-22T07:25:40.205Z,70.0
2017-07-22T07:28:12.002Z,70.2
2017-07-22T07:30:43.776Z,68.8
2017-07-22T07:33:15.489Z,68.5
2017-07-22T07:35:47.396Z,68.7
2017-07-22T07:38:19.241Z,68.5
2017-07-22T07:40:51.164Z,68.6
2017-07-22T07:43:22.901Z,68.4
2017-07-22T07:45:54.710Z,67.2
2017-07-22T07:48:26.512Z,67.9
2017-07-22T07:50:58.303Z,67.0
2017-07-22T07:53:30.084Z,66.5
2017-07-22T07:56:01.860Z,66.0
2017-07-22T07:58:33.612Z,65.8
2017-07-22T08:01:05.382Z,66.8
2017-07-22T08:03:37.175Z,65.7
2017-07-22T08:06:09.055Z,65.6
2017-07-22T08:08:40.884Z,65.5
2017-07-22T08:11:12.657Z,64.6
2017-07-22T08:13:44.414Z,63.5
2017-07-22T08:16:16.209Z,63.6
2017-07-22T08:18:47.928Z,64.6
2017-07-22T08:21:19.682Z,66.3
2017-07-22T08:23:52.038Z,66.8
2017-07-22T08:26:23.774Z,66.3
2017-07-22T08:28:55.505Z,65.8
2017-07-22T08:31:28.292Z,65.3
2017-07-22T08:34:00.000Z,64.6
2017-07-22T08:36:31.768Z,64.5
2017-07-22T08:39:03.487Z,64.5
2017-07-22T08:41:35.258Z,63.9
2017-07-22T08:44:07.023Z,64.0
2017-07-22T08:46:38.795Z,63.6
2017-07-22T08:49:10.543Z,63.2
2017-07-22T08:51:42.329Z,63.8
2017-07-22T08:54:14.078Z,62.0
2017-07-22T08:56:45.871Z,61.5
2017-07-22T08:59:17.623Z,60.9
2017-07-22T09:01:49.428Z,61.0
2017-07-22T09:04:21.148Z,60.9
2017-07-22T09:06:52.978Z,60.8
2017-07-22T09:09:24.757Z,61.2
2017-07-22T09:11:56.534Z,61.0
2017-07-22T09:14:28.313Z,60.6
2017-07-22T09:17:00.084Z,60.6
2017-07-22T09:19:32.579Z,59.8
2017-07-22T09:22:04.462Z,59.8
2017-07-22T09:24:36.238Z,59.6
2017-07-22T09:27:08.019Z,59.8
2017-07-22T09:29:42.722Z,59.8
2017-07-22T09:32:14.518Z,59.0
2017-07-22T09:34:46.293Z,58.5
2017-07-22T09:37:18.084Z,59.7
2017-07-22T09:39:50.861Z,59.9
2017-07-22T09:42:22.696Z,58.9
2017-07-22T09:44:54.430Z,58.9
2017-07-22T09:47:26.206Z,58.8
2017-07-22T09:49:57.988Z,58.9
2017-07-22T09:52:29.970Z,57.9
2017-07-22T09:55:01.784Z,57.6
2017-07-22T09:57:33.582Z,56.8
2017-07-22T10:00:05.367Z,56.9
2017-07-22T10:02:37.163Z,55.4
2017-07-22T10:05:08.912Z,54.4
2017-07-22T10:07:40.746Z,54.7
2017-07-22T10:10:12.527Z,54.3
2017-07-22T10:12:44.317Z,53.0
2017-07-22T10:15:16.066Z,53.9
2017-07-22T10:17:47.839Z,54.3
2017-07-22T10:20:19.583Z,54.4
2017-07-22T10:22:51.392Z,54.4
2017-07-22T10:25:23.256Z,54.0
2017-07-22T10:27:55.041Z,53.6
2017-07-22T10:30:27.118Z,54.6
2017-07-22T10:32:58.921Z,54.6
2017-07-22T10:35:30.689Z,54.4
2017-07-22T10:38:02.505Z,54.7
2017-07-22T10:40:34.266Z,54.1
2017-07-22T10:43:06.076Z,53.5
2017-07-22T10:45:37.819Z,54.6
2017-07-22T10:48:09.617Z,54.6
2017-07-22T10:50:41.380Z,54.2
2017-07-22T10:53:13.143Z,55.0
2017-07-22T10:55:44.909Z,54.7
2017-07-22T10:58:16.684Z,55.4
2017-07-22T11:00:48.445Z,55.5
2017-07-22T11:03:20.242Z,55.1
2017-07-22T11:05:52.102Z,55.7
2017-07-22T11:08:23.892Z,55.9
2017-07-22T11:10:55.639Z,56.4
2017-07-22T11:13:27.516Z,56.8
2017-07-22T11:15:59.245Z,59.8
2017-07-22T11:18:31.033Z,61.2
2017-07-22T11:21:02.793Z,65.6
2017-07-22T11:23:34.665Z,67.1
2017-07-22T11:26:06.619Z,68.8
2017-07-22T11:28:38.404Z,71.6
2017-07-22T11:31:10.154Z,74.2
2017-07-22T11:33:41.953Z,71.7
2017-07-22T11:36:13.880Z,73.6
2017-07-22T11:38:45.723Z,74.3
2017-07-22T11:41:17.458Z,71.7
2017-07-22T11:43:50.165Z,71.3
2017-07-22T11:46:22.021Z,69.4
2017-07-22T11:48:54.321Z,69.2
2017-07-22T11:51:26.210Z,69.3
2017-07-22T11:53:58.075Z,69.6
2017-07-22T11:56:30.639Z,69.4
2017-07-22T11:59:07.219Z,69.0
2017-07-22T12:01:39.416Z,66.1
2017-07-22T12:04:12.424Z,64.3
2017-07-22T12:06:44.171Z,63.1
2017-07-22T12:09:15.974Z,62.5
2017-07-22T12:11:47.735Z,63.7
2017-07-22T12:14:19.554Z,64.1
2017-07-22T12:16:51.327Z,64.4
2017-07-22T12:19:23.201Z,63.8
2017-07-22T12:21:54.975Z,64.1
2017-07-22T12:24:28.007Z,63.5
2017-07-22T12:26:59.982Z,63.7
2017-07-22T12:29:33.812Z,63.9
2017-07-22T12:32:05.593Z,63.1
2017-07-22T12:34:38.137Z,62.9
2017-07-22T12:37:10.879Z,62.2
2017-07-22T12:39:42.653Z,63.2
2017-07-22T12:42:14.943Z,63.4
2017-07-22T12:44:47.653Z,63.1
2017-07-22T12:47:20.451Z,63.7
2017-07-22T12:49:53.627Z,63.1
2017-07-22T12:52:26.719Z,63.7
2017-07-22T12:54:58.776Z,62.5
2017-07-22T12:57:32.629Z,63.3
2017-07-22T13:00:04.604Z,61.8
2017-07-22T13:02:37.178Z,62.0
2017-07-22T13:05:10.165Z,61.5
2017-07-22T13:07:43.239Z,61.7
2017-07-22T13:10:15.499Z,61.4
2017-07-22T13:12:47.233Z,62.0
2017-07-22T13:15:19.577Z,62.2
2017-07-22T13:17:52.678Z,63.4
2017-07-22T13:20:25.439Z,63.9
2017-07-22T13:22:57.617Z,64.4
2017-07-22T13:25:30.922Z,63.0
2017-07-22T13:28:03.244Z,62.6
2017-07-22T13:30:35.946Z,62.7
2017-07-22T13:33:07.708Z,61.9
2017-07-22T13:35:39.479Z,62.0
2017-07-22T13:38:16.323Z,62.0
2017-07-22T13:40:50.428Z,62.8
2017-07-22T13:43:23.625Z,61.8
2017-07-22T13:45:55.372Z,61.7
2017-07-22T13:48:27.298Z,61.4
2017-07-22T13:51:02.381Z,60.8
2017-07-22T13:53:34.690Z,61.1
2017-07-22T13:56:11.089Z,60.5
2017-07-22T13:58:43.549Z,60.2
2017-07-22T14:01:16.509Z,59.6
2017-07-22T14:03:48.578Z,59.6
2017-07-22T14:06:22.662Z,60.7
2017-07-22T14:08:55.448Z,60.5
2017-07-22T14:11:34.083Z,60.5
2017-07-22T14:14:06.830Z,60.8
2017-07-22T14:16:39.822Z,61.3
2017-07-22T14:19:13.169Z,61.0
2017-07-22T14:21:46.719Z,61.5
2017-07-22T14:24:18.458Z,61.7
2017-07-22T14:26:50.273Z,61.1
2017-07-22T14:29:22.000Z,60.5
2017-07-22T14:31:55.897Z,61.1
2017-07-22T14:34:27.618Z,60.3
2017-07-22T14:36:59.420Z,59.2
2017-07-22T14:39:31.143Z,59.5
2017-07-22T14:42:02.913Z,59.0
2017-07-22T14:44:34.652Z,57.5
2017-07-22T14:47:06.410Z,59.1
2017-07-22T14:49:38.138Z,59.1
2017-07-22T14:52:09.906Z,59.3
2017-07-22T14:54:42.659Z,59.5
2017-07-22T14:57:14.407Z,58.1
2017-07-22T14:59:46.146Z,58.4
2017-07-22T15:02:17.898Z,57.6
2017-07-22T15:04:49.624Z,55.1
2017-07-22T15:07:21.379Z,55.2
2017-07-22T15:09:53.231Z,54.5
2017-07-22T15:12:24.999Z,54.0
2017-07-22T15:14:56.720Z,55.4
2017-07-22T15:17:28.677Z,55.3
2017-07-22T15:20:00.395Z,54.5
2017-07-22T15:22:32.756Z,52.7
2017-07-22T15:25:05.843Z,52.2
2017-07-22T15:27:38.376Z,52.4
2017-07-22T15:30:11.546Z,51.0
2017-07-22T15:32:43.312Z,50.8
2017-07-22T15:35:15.511Z,48.9
2017-07-22T15:37:48.390Z,50.3
2017-07-22T15:40:20.180Z,48.9
2017-07-22T15:42:52.353Z,47.7
2017-07-22T15:45:25.489Z,46.6
2017-07-22T15:47:59.391Z,45.7
2017-07-22T15:50:31.176Z,46.9
2017-07-22T15:53:06.690Z,46.9
2017-07-22T15:55:40.717Z,46.8
2017-07-22T15:58:15.472Z,46.8
2017-07-22T16:00:48.916Z,46.3
2017-07-22T16:03:21.759Z,45.4
2017-07-22T16:05:54.499Z,45.4
2017-07-22T16:08:26.459Z,45.7
2017-07-22T16:10:58.374Z,45.6
2017-07-22T16:13:30.213Z,45.9
2017-07-22T16:16:03.436Z,46.4
2017-07-22T16:18:35.250Z,46.8
2017-07-22T16:21:08.692Z,46.8
2017-07-22T16:23:41.930Z,46.6
2017-07-22T16:26:13.738Z,47.4
2017-07-22T16:28:46.670Z,47.0
2017-07-22T16:31:19.408Z,47.0
2017-07-22T16:33:52.536Z,50.7
2017-07-22T16:36:27.154Z,47.6
2017-07-22T16:38:59.409Z,46.6
2017-07-22T16:41:31.295Z,45.7
2017-07-22T16:44:03.542Z,46.1
2017-07-22T16:46:35.309Z,46.5
2017-07-22T16:49:07.128Z,45.2
2017-07-22T16:51:38.861Z,43.9
2017-07-22T16:54:10.753Z,44.3
2017-07-22T16:56:42.469Z,43.7
2017-07-22T16:59:14.279Z,45.5
2017-07-22T17:01:46.038Z,44.0
2017-07-22T17:04:17.807Z,44.0
2017-07-22T17:06:49.520Z,45.2
2017-07-22T17:09:21.276Z,45.2
2017-07-22T17:11:53.003Z,46.0
2017-07-22T17:14:25.754Z,45.6
2017-07-22T17:17:03.133Z,47.0
2017-07-22T17:19:34.856Z,47.0
2017-07-22T17:22:07.165Z,46.8
2017-07-22T17:24:39.641Z,47.6
2017-07-22T17:27:13.713Z,47.5
2017-07-22T17:29:45.450Z,47.4
2017-07-22T17:32:17.158Z,48.9
2017-07-22T17:34:50.186Z,47.8
2017-07-22T17:37:22.986Z,47.6
2017-07-22T17:39:54.753Z,48.1
2017-07-22T17:42:26.572Z,48.4
2017-07-22T17:44:58.343Z,48.2
2017-07-22T17:47:30.084Z,48.7
2017-07-22T17:50:02.043Z,48.8
2017-07-22T17:52:33.909Z,48.7
2017-07-22T17:55:05.858Z,49.0
2017-07-22T17:57:37.605Z,48.7
2017-07-22T18:00:11.374Z,49.9
2017-07-22T18:02:43.122Z,49.6
2017-07-22T18:05:14.877Z,49.7
2017-07-22T18:07:46.642Z,51.3
2017-07-22T18:10:18.405Z,50.9
2017-07-22T18:12:50.177Z,51.4
2017-07-22T18:15:21.935Z,52.3
2017-07-22T18:17:53.672Z,52.6
2017-07-22T18:20:25.423Z,52.6
2017-07-22T18:22:57.188Z,52.8
2017-07-22T18:25:28.942Z,53.5
2017-07-22T18:28:00.722Z,54.7
2017-07-22T18:30:33.638Z,54.3
2017-07-22T18:33:10.640Z,55.1
2017-07-22T18:35:45.898Z,54.7
2017-07-22T18:38:17.630Z,55.5
2017-07-22T18:40:50.779Z,55.0
2017-07-22T18:43:23.300Z,55.6
2017-07-22T18:45:55.776Z,55.8
2017-07-22T18:48:27.510Z,56.4
2017-07-22T18:50:59.282Z,56.7
2017-07-22T18:53:31.214Z,57.3
2017-07-22T18:56:02.998Z,57.2
2017-07-22T18:58:34.775Z,57.7
2017-07-22T19:01:08.293Z,58.2
2017-07-22T19:03:40.220Z,57.1
2017-07-22T19:06:12.021Z,57.4
2017-07-22T19:08:44.553Z,57.9
2017-07-22T19:11:16.330Z,58.2
2017-07-22T19:13:49.351Z,60.7
2017-07-22T19:16:22.523Z,61.9
2017-07-22T19:18:54.564Z,62.0
2017-07-22T19:21:26.361Z,62.7
2017-07-22T19:23:58.100Z,60.4
2017-07-22T19:26:29.955Z,61.9
2017-07-22T19:29:03.037Z,67.3
2017-07-22T19:31:34.996Z,67.0
2017-07-22T19:34:06.734Z,67.5
2017-07-22T19:36:39.226Z,65.9
2017-07-22T19:39:11.057Z,66.7
2017-07-22T19:41:42.800Z,65.5
2017-07-22T19:44:15.853Z,64.5
2017-07-22T19:46:47.686Z,65.3
2017-07-22T19:49:20.206Z,64.3
2017-07-22T19:51:53.047Z,64.2
2017-07-22T19:54:24.864Z,64.4
2017-07-22T19:56:57.538Z,64.9
2017-07-22T19:59:29.445Z,65.2
2017-07-22T20:02:01.225Z,66.3
2017-07-22T20:04:33.539Z,66.4
2017-07-22T20:07:05.401Z,66.4
2017-07-22T20:09:38.182Z,65.9
2017-07-22T20:12:10.646Z,63.8
2017-07-22T20:14:43.407Z,63.8
2017-07-22T20:17:15.215Z,64.4
2017-07-22T20:19:47.035Z,65.3
2017-07-22T20:22:19.979Z,64.5
2017-07-22T20:24:51.721Z,65.4
2017-07-22T20:27:23.459Z,64.7
2017-07-22T20:29:55.193Z,65.0
2017-07-22T20:32:26.958Z,66.2
2017-07-22T20:34:58.663Z,68.8
2017-07-22T20:37:30.423Z,68.8
2017-07-22T20:40:02.132Z,67.3
2017-07-22T20:42:33.885Z,64.7
2017-07-22T20:45:05.616Z,63.8
2017-07-22T20:47:37.376Z,63.4
2017-07-22T20:50:09.099Z,63.1
2017-07-22T20:52:40.871Z,63.0
2017-07-22T20:55:12.598Z,62.0
2017-07-22T20:57:44.367Z,62.0
2017-07-22T21:00:16.106Z,61.6
2017-07-22T21:02:47.854Z,61.9
2017-07-22T21:05:19.639Z,61.5
2017-07-22T21:07:51.460Z,61.8
2017-07-22T21:10:23.201Z,61.5
2017-07-22T21:12:54.978Z,61.9
2017-07-22T21:15:26.716Z,61.5
2017-07-22T21:17:58.495Z,61.8
2017-07-22T21:20:30.265Z,62.0
2017-07-22T21:23:02.037Z,61.6
2017-07-22T21:25:33.802Z,60.8
2017-07-22T21:28:05.564Z,61.4
2017-07-22T21:30:37.305Z,61.8
2017-07-22T21:33:09.064Z,62.2
2017-07-22T21:35:40.805Z,62.1
2017-07-22T21:38:12.563Z,62.3
2017-07-22T21:40:44.297Z,62.3
2017-07-22T21:43:16.062Z,62.8
2017-07-22T21:45:47.818Z,62.3
2017-07-22T21:48:19.604Z,62.8
2017-07-22T21:50:51.374Z,63.4
2017-07-22T21:53:23.184Z,63.7
2017-07-22T21:55:54.953Z,63.6
2017-07-22T21:58:26.718Z,64.0
2017-07-22T22:00:58.675Z,63.8
2017-07-22T22:03:30.534Z,64.2
2017-07-22T22:06:02.284Z,64.1
2017-07-22T22:08:34.048Z,64.1
2017-07-22T22:11:05.799Z,64.8
2017-07-22T22:13:37.575Z,65.5
2017-07-22T22:16:09.332Z,65.3
2017-07-22T22:18:41.104Z,65.7
2017-07-22T22:21:12.839Z,64.8
2017-07-22T22:23:44.648Z,64.8
2017-07-22T22:26:16.383Z,64.6
2017-07-22T22:28:48.430Z,64.6
2017-07-22T22:31:20.144Z,64.5
2017-07-22T22:33:52.237Z,64.7
2017-07-22T22:36:23.968Z,64.7
2017-07-22T22:38:55.715Z,64.6
2017-07-22T22:41:27.439Z,64.9
2017-07-22T22:43:59.202Z,64.4
2017-07-22T22:46:30.902Z,64.3
2017-07-22T22:49:02.667Z,64.5
2017-07-22T22:51:34.386Z,64.7
2017-07-22T22:54:06.128Z,64.5
2017-07-22T22:56:37.927Z,64.3
2017-07-22T22:59:09.707Z,64.2
2017-07-22T23:01:41.451Z,64.5
2017-07-22T23:04:13.199Z,63.8
2017-07-22T23:06:44.956Z,64.4
2017-07-22T23:09:16.714Z,64.2
2017-07-22T23:11:49.924Z,65.2
2017-07-22T23:14:21.711Z,65.0
2017-07-22T23:16:53.901Z,65.3
2017-07-22T23:19:26.176Z,65.6
2017-07-22T23:21:57.930Z,65.0
2017-07-22T23:24:29.669Z,64.9
2017-07-22T23:27:01.398Z,65.6
2017-07-22T23:29:33.152Z,65.6
2017-07-22T23:32:04.877Z,65.8
2017-07-22T23:34:36.746Z,65.0
2017-07-22T23:37:08.476Z,65.3
2017-07-22T23:39:40.275Z,65.2
2017-07-22T23:42:11.999Z,65.3
2017-07-22T23:44:43.740Z,65.6
2017-07-22T23:47:16.658Z,65.4
2017-07-22T23:49:48.414Z,65.3
2017-07-22T23:52:20.120Z,65.1
2017-07-22T23:54:52.282Z,65.2
2017-07-22T23:57:24.080Z,65.0
2017-07-22T23:59:55.884Z,65.1
